Sim-Planet VA

Sim-Planet Nouvel Horizon. By: Anthony Pay
Since 2020.




 METAR ET TAF INFORMATION
METAR FOR DIAP
ADDS - METARS form results

(1110 UTC 24 July 2021)
Data provider http://aviationweather.gov/metar/data/
 
METAR text: DIAP 241100Z 24009KT 9999 SCT015 28/23 Q1015 NOSIG
Conditions at: DIAP (ABIDJAN/PORT BOU, CI) observed 1100 UTC 24 July 2021
Temperature: 28.0°C (82°F)
Dewpoint: 23.0°C (73°F) [RH = 74%]
Pressure (altimeter): 29.97 inches Hg (1015.0 mb)
Winds: from the WSW (240 degrees) at 10 MPH (9 knots; 4.6 m/s)
Visibility: 6 or more miles (10+ km)
Ceiling: at least 12,000 feet AGL
Clouds: scattered clouds at 1500 feet AGL
Weather: no significant weather observed at this time

METAR text: DIAP 241030Z 23009KT 200V260 9999 SCT012 28/23 Q1015 NOSIG
Conditions at: DIAP (ABIDJAN/PORT BOU, CI) observed 1030 UTC 24 July 2021
Temperature: 28.0°C (82°F)
Dewpoint: 23.0°C (73°F) [RH = 74%]
Pressure (altimeter): 29.97 inches Hg (1015.0 mb)
Winds: from the SW (230 degrees) at 10 MPH (9 knots; 4.6 m/s)
Visibility: 6 or more miles (10+ km)
Ceiling: at least 12,000 feet AGL
Clouds: scattered clouds at 1200 feet AGL
Weather: no significant weather observed at this time

Forecast for: DIAP (ABIDJAN/PORT BOU, CI)
Text: TAF DIAP 240535Z 2406/2512 21010KT 8000 SCT013
Forecast period: 0600 UTC 24 July 2021 to 1200 UTC 25 July 2021
Forecast type: FROM: standard forecast or significant change
Winds: from the SSW (210 degrees) at 12 MPH (10 knots; 5.1 m/s)
Visibility: 5 miles (8 km)
Ceiling: at least 12,000 feet AGL
Clouds: scattered clouds at 1300 feet AGL
Weather: no significant weather forecast for this period
Text: PROB30
Forecast period: 0500 to 0900 UTC 25 July 2021
Forecast type: TEMPORARY: The following changes expected for less than half the time period
Visibility: 2.80 miles (4.51 km)
Ceiling: 1100 feet AGL
Clouds: broken clouds at 1100 feet AGL
broken clouds at 3000 feet AGL
Weather: DZ  (moderate drizzle)

 AÉROPORT DE AÉROPORT

 INFORMATIONS DE PISTE
Piste 03 Longueur de la piste 9843 ft Largeur de la piste 164 ft
Élévation de la piste 21 ft Seuil de la piste déplacés 0 ft Runway heading 23
Piste 21 Longueur de la piste 9843 ft Largeur de la piste 164 ft
Élévation de la piste 11 ft Seuil de la piste déplacés 0 ft Runway heading 203

 AÉROPORT FRÉQUENCES
Type A/G Nom RDO Féquence 568 MHZ
Type ACC Nom CON Féquence 121.1 MHZ
Type AFIS Nom INFO Féquence 129.1 MHZ
Type ATIS Nom ATIS Féquence 126.6 MHZ
Type MISC Nom VHF/DF Féquence 118.1 MHZ
Type TWR Nom TWR Féquence 118.1 MHZ

 SIDA DE NAVIGATION
Type VOR-DME Nom Abidjan Féquence 114300 KHZ
Type NDB Nom Abidjan Féquence 306 KHZ
Type NDB Nom Abidjan Felix Houphouet Boigny Féquence 294 KHZ